createdAt,value
2023-11-19T00:02:13.095Z,49.63
2023-11-19T00:04:44.077Z,49.61
2023-11-19T00:07:15.211Z,49.55
2023-11-19T00:09:46.025Z,49.45
2023-11-19T00:12:16.957Z,49.65
2023-11-19T00:14:47.887Z,49.71
2023-11-19T00:17:18.663Z,49.59
2023-11-19T00:19:50.488Z,49.61
2023-11-19T00:22:22.959Z,49.69
2023-11-19T00:24:53.966Z,49.78
2023-11-19T00:27:25.384Z,49.76
2023-11-19T00:29:56.411Z,49.76
2023-11-19T00:32:27.718Z,49.84
2023-11-19T00:34:58.422Z,49.84
2023-11-19T00:37:29.317Z,49.86
2023-11-19T00:40:00.677Z,49.84
2023-11-19T00:42:31.454Z,49.75
2023-11-19T00:45:02.660Z,49.90
2023-11-19T00:47:33.802Z,49.98
2023-11-19T00:50:04.662Z,50.09
2023-11-19T00:52:35.411Z,50.14
2023-11-19T00:55:08.346Z,50.02
2023-11-19T00:57:39.391Z,50.07
2023-11-19T01:00:20.268Z,50.11
2023-11-19T01:02:52.786Z,50.09
2023-11-19T01:05:24.436Z,50.04
2023-11-19T01:07:55.872Z,50.16
2023-11-19T01:10:27.241Z,50.25
2023-11-19T01:12:58.608Z,50.15
2023-11-19T01:15:29.701Z,50.32
2023-11-19T01:18:00.775Z,50.23
2023-11-19T01:20:31.515Z,50.29
2023-11-19T01:23:02.192Z,50.40
2023-11-19T01:25:33.091Z,50.20
2023-11-19T01:28:04.046Z,50.30
2023-11-19T01:30:34.924Z,50.11
2023-11-19T01:33:08.768Z,50.18
2023-11-19T01:35:37.952Z,50.36
2023-11-19T01:38:09.705Z,50.34
2023-11-19T01:40:40.561Z,50.42
2023-11-19T01:43:12.743Z,50.29
2023-11-19T01:45:43.600Z,50.40
2023-11-19T01:48:16.410Z,50.53
2023-11-19T01:50:47.760Z,50.54
2023-11-19T01:53:19.265Z,50.50
2023-11-19T01:55:50.806Z,50.59
2023-11-19T01:58:21.666Z,50.48
2023-11-19T02:00:53.213Z,50.55
2023-11-19T02:03:26.996Z,50.69
2023-11-19T02:05:56.276Z,50.78
2023-11-19T02:08:27.350Z,50.68
2023-11-19T02:10:58.939Z,50.74
2023-11-19T02:13:30.894Z,50.76
2023-11-19T02:16:03.306Z,50.71
2023-11-19T02:18:34.076Z,50.80
2023-11-19T02:21:06.596Z,50.83
2023-11-19T02:23:37.707Z,50.89
2023-11-19T02:26:16.314Z,51.03
2023-11-19T02:28:47.576Z,50.86
2023-11-19T02:31:18.603Z,51.07
2023-11-19T02:33:51.135Z,51.07
2023-11-19T02:36:22.878Z,51.03
2023-11-19T02:38:53.810Z,51.05
2023-11-19T02:41:25.396Z,51.01
2023-11-19T02:43:56.178Z,51.02
2023-11-19T02:46:27.630Z,51.05
2023-11-19T02:48:58.516Z,51.05
2023-11-19T02:51:31.566Z,51.04
2023-11-19T02:54:02.601Z,51.05
2023-11-19T02:56:37.941Z,51.00
2023-11-19T02:59:19.429Z,51.14
2023-11-19T03:01:51.602Z,51.18
2023-11-19T03:04:24.295Z,51.22
2023-11-19T03:06:55.513Z,51.30
2023-11-19T03:09:26.537Z,51.28
2023-11-19T03:11:57.431Z,51.23
2023-11-19T03:14:28.601Z,51.27
2023-11-19T03:16:59.498Z,51.34
2023-11-19T03:19:30.825Z,51.37
2023-11-19T03:22:03.648Z,51.35
2023-11-19T03:24:34.703Z,51.32
2023-11-19T03:27:06.032Z,51.39
2023-11-19T03:29:36.784Z,51.44
2023-11-19T03:32:09.071Z,51.49
2023-11-19T03:34:39.805Z,51.49
2023-11-19T03:37:10.856Z,51.53
2023-11-19T03:39:41.488Z,51.56
2023-11-19T03:42:14.497Z,51.48
2023-11-19T03:44:45.247Z,51.51
2023-11-19T03:47:16.265Z,51.45
2023-11-19T03:49:51.826Z,51.39
2023-11-19T03:52:22.908Z,51.41
2023-11-19T03:54:54.423Z,51.45
2023-11-19T03:57:25.799Z,51.39
2023-11-19T03:59:57.155Z,51.45
2023-11-19T04:02:29.690Z,51.45
2023-11-19T04:05:00.455Z,51.55
2023-11-19T04:07:31.199Z,51.61
2023-11-19T04:10:02.145Z,51.56
2023-11-19T04:12:32.919Z,51.58
2023-11-19T04:15:04.660Z,51.58
2023-11-19T04:17:35.363Z,51.58
2023-11-19T04:20:11.861Z,51.51
2023-11-19T04:22:42.886Z,51.57
2023-11-19T04:25:15.251Z,51.64
2023-11-19T04:27:46.189Z,51.57
2023-11-19T04:30:17.778Z,51.47
2023-11-19T04:32:49.910Z,51.40
2023-11-19T04:35:21.488Z,51.38
2023-11-19T04:37:52.249Z,51.42
2023-11-19T04:40:24.090Z,51.36
2023-11-19T04:42:55.156Z,51.30
2023-11-19T04:45:25.875Z,51.24
2023-11-19T04:47:56.702Z,51.30
2023-11-19T04:50:28.437Z,51.25
2023-11-19T04:53:01.200Z,51.32
2023-11-19T04:55:32.259Z,51.34
2023-11-19T04:58:03.078Z,51.34
2023-11-19T05:00:34.491Z,51.32
2023-11-19T05:03:05.290Z,51.34
2023-11-19T05:05:36.192Z,51.27
2023-11-19T05:08:07.443Z,51.34
2023-11-19T05:10:38.790Z,51.31
2023-11-19T05:13:09.602Z,51.30
2023-11-19T05:15:40.725Z,51.40
2023-11-19T05:18:11.736Z,51.36
2023-11-19T05:20:42.901Z,51.34
2023-11-19T05:25:48.873Z,51.39
2023-11-19T05:28:19.880Z,51.38
2023-11-19T05:30:50.675Z,51.43
2023-11-19T05:33:21.722Z,51.37
2023-11-19T05:35:52.481Z,51.49
2023-11-19T05:38:23.416Z,51.28
2023-11-19T05:40:54.275Z,51.32
2023-11-19T05:43:25.080Z,51.40
2023-11-19T05:45:55.921Z,51.43
2023-11-19T05:48:28.538Z,51.49
2023-11-19T05:50:59.193Z,51.52
2023-11-19T05:53:30.592Z,51.41
2023-11-19T05:56:05.232Z,51.45
2023-11-19T05:58:37.055Z,51.55
2023-11-19T06:01:09.865Z,51.55
2023-11-19T06:03:41.018Z,51.61
2023-11-19T06:06:13.291Z,51.62
2023-11-19T06:08:44.575Z,51.55
2023-11-19T06:11:19.985Z,51.62
2023-11-19T06:13:52.334Z,51.71
2023-11-19T06:16:23.328Z,51.80
2023-11-19T06:18:55.025Z,51.77
2023-11-19T06:21:26.315Z,51.74
2023-11-19T06:23:57.153Z,51.59
2023-11-19T06:26:28.136Z,51.58
2023-11-19T06:28:59.246Z,51.34
2023-11-19T06:31:30.195Z,51.27
2023-11-19T06:34:01.182Z,51.10
2023-11-19T06:36:32.205Z,50.98
2023-11-19T06:39:03.052Z,50.83
2023-11-19T06:41:34.185Z,50.84
2023-11-19T06:44:05.822Z,50.74
2023-11-19T06:46:37.098Z,50.57
2023-11-19T06:49:08.603Z,50.37
2023-11-19T06:51:42.944Z,50.33
2023-11-19T06:54:14.023Z,50.19
2023-11-19T06:56:45.415Z,50.09
2023-11-19T06:59:17.608Z,49.93
2023-11-19T07:01:48.579Z,49.88
2023-11-19T07:04:19.515Z,49.74
2023-11-19T07:06:50.672Z,49.61
2023-11-19T07:09:22.398Z,49.58
2023-11-19T07:11:54.045Z,49.47
2023-11-19T07:14:24.991Z,49.45
2023-11-19T07:16:57.009Z,49.26
2023-11-19T07:19:28.174Z,49.22
2023-11-19T07:21:58.964Z,49.10
2023-11-19T07:24:30.479Z,49.18
2023-11-19T07:27:01.911Z,49.05
2023-11-19T07:29:34.214Z,48.94
2023-11-19T07:32:06.404Z,49.14
2023-11-19T07:34:38.324Z,48.93
2023-11-19T07:37:09.475Z,48.86
2023-11-19T07:39:42.602Z,48.78
2023-11-19T07:42:13.561Z,48.68
2023-11-19T07:44:45.474Z,48.68
2023-11-19T07:47:16.393Z,48.48
2023-11-19T07:49:47.469Z,48.48
2023-11-19T07:52:21.893Z,48.57
2023-11-19T07:54:53.317Z,48.62
2023-11-19T07:57:25.213Z,48.63
2023-11-19T07:59:56.288Z,48.59
2023-11-19T08:02:27.321Z,48.75
2023-11-19T08:04:58.896Z,48.64
2023-11-19T08:07:29.828Z,48.76
2023-11-19T08:10:01.380Z,48.84
2023-11-19T08:12:32.580Z,48.76
2023-11-19T08:15:03.479Z,48.67
2023-11-19T08:17:34.374Z,48.70
2023-11-19T08:20:06.380Z,48.65
2023-11-19T08:22:37.852Z,48.73
2023-11-19T08:25:10.715Z,48.78
2023-11-19T08:27:42.084Z,48.78
2023-11-19T08:30:14.792Z,48.85
2023-11-19T08:32:45.566Z,48.91
2023-11-19T08:35:17.798Z,49.00
2023-11-19T08:37:49.007Z,49.09
2023-11-19T08:40:21.253Z,49.06
2023-11-19T08:42:52.490Z,49.10
2023-11-19T08:45:23.388Z,49.12
2023-11-19T08:47:54.797Z,49.08
2023-11-19T08:50:26.078Z,49.11
2023-11-19T08:52:57.603Z,49.02
2023-11-19T08:55:29.529Z,49.12
2023-11-19T08:58:02.136Z,49.07
2023-11-19T09:00:33.895Z,49.20
2023-11-19T09:03:05.454Z,49.18
2023-11-19T09:05:37.024Z,49.22
2023-11-19T09:08:09.844Z,49.06
2023-11-19T09:10:41.293Z,49.17
2023-11-19T09:13:12.324Z,49.24
2023-11-19T09:15:43.803Z,49.27
2023-11-19T09:18:15.081Z,49.30
2023-11-19T09:20:46.658Z,49.37
2023-11-19T09:23:17.840Z,49.32
2023-11-19T09:25:48.874Z,49.25
2023-11-19T09:28:20.009Z,49.29
2023-11-19T09:30:51.052Z,49.17
2023-11-19T09:33:22.581Z,49.23
2023-11-19T09:35:54.499Z,49.30
2023-11-19T09:38:25.757Z,49.23
2023-11-19T09:40:58.432Z,49.22
2023-11-19T09:43:30.783Z,49.37
2023-11-19T09:46:07.991Z,49.30
2023-11-19T09:48:41.237Z,49.40
2023-11-19T09:51:13.637Z,49.46
2023-11-19T09:53:44.724Z,49.28
2023-11-19T09:56:18.249Z,49.37
2023-11-19T09:58:49.817Z,49.48
2023-11-19T10:01:26.504Z,49.26
2023-11-19T10:04:01.014Z,49.52
2023-11-19T10:06:34.435Z,49.19
2023-11-19T10:09:06.590Z,49.46
2023-11-19T10:11:37.606Z,49.50
2023-11-19T10:14:08.858Z,49.35
2023-11-19T10:16:40.597Z,49.43
2023-11-19T10:19:15.018Z,49.36
2023-11-19T10:21:48.135Z,49.33
2023-11-19T10:26:53.317Z,49.41
2023-11-19T10:29:26.047Z,49.39
2023-11-19T10:32:24.059Z,49.53
2023-11-19T10:34:52.777Z,49.30
2023-11-19T10:37:34.336Z,49.40
2023-11-19T10:40:06.883Z,49.38
2023-11-19T10:42:37.972Z,49.41
2023-11-19T10:45:26.243Z,49.33
2023-11-19T10:48:00.160Z,49.42
2023-11-19T10:50:31.805Z,49.38
2023-11-19T10:53:04.498Z,49.35
2023-11-19T10:55:37.263Z,49.53
2023-11-19T10:58:09.651Z,49.41
2023-11-19T11:00:47.356Z,49.53
2023-11-19T11:03:21.583Z,49.47
2023-11-19T11:05:53.922Z,49.44
2023-11-19T11:08:25.092Z,49.52
2023-11-19T11:10:58.910Z,49.54
2023-11-19T11:13:30.568Z,49.39
2023-11-19T11:16:02.715Z,49.63
2023-11-19T11:18:33.923Z,49.63
2023-11-19T11:21:10.739Z,49.46
2023-11-19T11:24:15.183Z,49.51
2023-11-19T11:27:19.408Z,49.70
2023-11-19T11:29:54.148Z,49.62
2023-11-19T11:32:36.196Z,49.56
2023-11-19T11:35:22.369Z,49.64
2023-11-19T11:37:58.471Z,49.49
2023-11-19T11:40:29.558Z,49.63
2023-11-19T11:43:01.088Z,49.65
2023-11-19T11:45:44.619Z,49.54
2023-11-19T11:48:18.537Z,49.42
2023-11-19T11:50:55.034Z,49.66
2023-11-19T11:53:27.648Z,49.62
2023-11-19T11:56:05.208Z,49.47
2023-11-19T11:58:40.242Z,49.53
2023-11-19T12:01:21.471Z,49.63
2023-11-19T12:03:58.250Z,49.51
2023-11-19T12:06:31.461Z,49.39
2023-11-19T12:09:06.504Z,49.47
2023-11-19T12:11:38.950Z,49.39
2023-11-19T12:14:10.457Z,49.19
2023-11-19T12:16:42.301Z,49.25
2023-11-19T12:19:14.867Z,49.15
2023-11-19T12:21:47.035Z,49.22
2023-11-19T12:24:18.881Z,49.17
2023-11-19T12:26:53.823Z,49.12
2023-11-19T12:29:25.045Z,49.09
2023-11-19T12:34:38.028Z,49.12
2023-11-19T12:37:11.060Z,49.24
2023-11-19T12:39:42.316Z,49.19
2023-11-19T12:42:14.585Z,49.16
2023-11-19T12:44:58.951Z,49.24
2023-11-19T12:47:31.385Z,49.25
2023-11-19T12:50:02.736Z,49.18
2023-11-19T12:52:34.085Z,49.15
2023-11-19T12:55:05.273Z,49.25
2023-11-19T12:57:43.956Z,49.24
2023-11-19T13:00:24.644Z,49.28
2023-11-19T13:02:58.022Z,49.33
2023-11-19T13:05:35.247Z,49.27
2023-11-19T13:08:08.213Z,49.49
2023-11-19T13:10:55.231Z,49.45
2023-11-19T13:13:26.316Z,49.53
2023-11-19T13:16:04.315Z,49.58
2023-11-19T13:21:09.932Z,49.51
2023-11-19T13:23:41.056Z,49.41
2023-11-19T13:26:12.107Z,49.53
2023-11-19T13:28:43.152Z,49.62
2023-11-19T13:31:14.258Z,49.47
2023-11-19T13:33:45.547Z,49.74
2023-11-19T13:36:17.836Z,49.57
2023-11-19T13:38:49.215Z,49.68
2023-11-19T13:41:21.813Z,49.57
2023-11-19T13:43:52.766Z,49.75
2023-11-19T13:46:23.953Z,49.66
2023-11-19T13:48:55.007Z,49.80
2023-11-19T13:51:27.132Z,49.79
2023-11-19T13:53:58.434Z,49.68
2023-11-19T13:56:29.702Z,49.55
2023-11-19T13:59:02.121Z,49.61
2023-11-19T14:01:33.488Z,49.72
2023-11-19T14:04:04.587Z,49.78
2023-11-19T14:06:35.721Z,49.55
2023-11-19T14:09:09.184Z,49.66
2023-11-19T14:11:40.410Z,49.71
2023-11-19T14:14:11.628Z,49.69
2023-11-19T14:16:43.013Z,49.73
2023-11-19T14:19:15.144Z,49.70
2023-11-19T14:21:46.630Z,49.73
2023-11-19T14:24:17.902Z,49.75
2023-11-19T14:26:52.366Z,49.58
2023-11-19T14:29:23.819Z,49.65
2023-11-19T14:31:55.267Z,49.66
2023-11-19T14:34:27.594Z,49.71
2023-11-19T14:36:58.934Z,49.69
2023-11-19T14:39:32.308Z,49.69
2023-11-19T14:42:05.909Z,49.88
2023-11-19T14:44:37.559Z,49.80
2023-11-19T14:47:09.353Z,49.81
2023-11-19T14:49:40.603Z,49.78
2023-11-19T14:54:47.172Z,49.95
2023-11-19T14:57:18.544Z,49.94
2023-11-19T14:59:49.505Z,49.92
2023-11-19T15:02:20.789Z,50.03
2023-11-19T15:04:51.985Z,49.99
2023-11-19T15:07:24.123Z,50.08
2023-11-19T15:09:55.253Z,49.76
2023-11-19T15:12:28.115Z,50.02
2023-11-19T15:14:59.200Z,50.00
2023-11-19T15:17:30.919Z,49.86
2023-11-19T15:20:02.126Z,49.91
2023-11-19T15:22:33.665Z,49.89
2023-11-19T15:25:04.618Z,50.04
2023-11-19T15:27:35.669Z,49.86
2023-11-19T15:30:09.906Z,50.09
2023-11-19T15:32:41.038Z,50.09
2023-11-19T15:35:14.883Z,50.01
2023-11-19T15:37:46.214Z,49.96
2023-11-19T15:40:19.402Z,50.08
2023-11-19T15:42:50.601Z,50.12
2023-11-19T15:45:21.520Z,50.10
2023-11-19T15:47:53.337Z,50.07
2023-11-19T15:50:24.254Z,49.90
2023-11-19T15:52:55.388Z,50.21
2023-11-19T15:55:26.452Z,50.23
2023-11-19T15:57:57.487Z,50.17
2023-11-19T16:00:28.314Z,50.08
2023-11-19T16:02:59.526Z,50.10
2023-11-19T16:05:30.918Z,50.05
2023-11-19T16:08:02.669Z,50.14
2023-11-19T16:10:33.796Z,50.08
2023-11-19T16:13:05.169Z,50.13
2023-11-19T16:15:37.133Z,50.23
2023-11-19T16:18:10.972Z,50.14
2023-11-19T16:20:40.580Z,50.10
2023-11-19T16:23:13.322Z,50.24
2023-11-19T16:25:44.308Z,50.29
2023-11-19T16:28:15.275Z,50.44
2023-11-19T16:30:46.409Z,50.39
2023-11-19T16:33:25.134Z,50.30
2023-11-19T16:36:01.814Z,50.43
2023-11-19T16:38:32.905Z,50.36
2023-11-19T16:41:05.916Z,50.52
2023-11-19T16:43:37.072Z,50.51
2023-11-19T16:46:09.273Z,50.38
2023-11-19T16:48:40.426Z,50.39
2023-11-19T16:51:16.602Z,50.30
2023-11-19T16:53:52.200Z,50.21
2023-11-19T16:56:23.321Z,50.28
2023-11-19T16:58:54.314Z,50.24
2023-11-19T17:01:25.646Z,50.12
2023-11-19T17:03:56.935Z,50.07
2023-11-19T17:06:27.973Z,50.15
2023-11-19T17:08:59.065Z,50.25
2023-11-19T17:11:30.237Z,50.16
2023-11-19T17:14:01.969Z,50.18
2023-11-19T17:16:32.970Z,50.23
2023-11-19T17:19:04.168Z,50.15
2023-11-19T17:21:35.745Z,50.28
2023-11-19T17:24:08.199Z,50.26
2023-11-19T17:29:13.912Z,50.14
2023-11-19T17:31:45.836Z,50.12
2023-11-19T17:34:17.370Z,50.21
2023-11-19T17:36:48.675Z,50.21
2023-11-19T17:39:20.268Z,50.20
2023-11-19T17:41:51.352Z,50.12
2023-11-19T17:44:23.997Z,50.07
2023-11-19T17:46:55.181Z,50.21
2023-11-19T17:49:26.438Z,50.20
2023-11-19T17:51:57.797Z,50.08
2023-11-19T17:54:28.870Z,50.04
2023-11-19T17:56:59.739Z,50.41
2023-11-19T17:59:31.068Z,50.18
2023-11-19T18:02:03.496Z,50.18
2023-11-19T18:04:38.576Z,50.13
2023-11-19T18:07:10.393Z,50.09
2023-11-19T18:09:42.147Z,50.15
2023-11-19T18:12:16.644Z,50.06
2023-11-19T18:17:22.310Z,49.92
2023-11-19T18:19:53.463Z,49.98
2023-11-19T18:22:25.481Z,49.94
2023-11-19T18:24:56.511Z,50.01
2023-11-19T18:27:27.890Z,50.08
2023-11-19T18:29:59.006Z,49.78
2023-11-19T18:32:30.222Z,49.88
2023-11-19T18:35:01.234Z,50.11
2023-11-19T18:37:32.374Z,49.96
2023-11-19T18:40:03.319Z,49.83
2023-11-19T18:42:35.515Z,49.57
2023-11-19T18:45:09.401Z,49.74
2023-11-19T18:47:40.346Z,49.82
2023-11-19T18:50:12.606Z,49.80
2023-11-19T18:52:43.788Z,49.78
2023-11-19T18:55:15.245Z,49.80
2023-11-19T18:57:46.332Z,49.73
2023-11-19T19:00:19.238Z,49.71
2023-11-19T19:05:27.161Z,49.63
2023-11-19T19:07:59.261Z,49.81
2023-11-19T19:10:30.527Z,49.88
2023-11-19T19:13:01.599Z,49.61
2023-11-19T19:15:32.702Z,49.71
2023-11-19T19:18:04.417Z,49.52
2023-11-19T19:20:35.890Z,49.83
2023-11-19T19:25:38.459Z,49.86
2023-11-19T19:30:45.980Z,49.82
2023-11-19T19:33:17.182Z,49.76
2023-11-19T19:35:48.386Z,49.72
2023-11-19T19:38:19.962Z,49.85
2023-11-19T19:40:51.288Z,49.76
2023-11-19T19:43:22.273Z,49.72
2023-11-19T19:45:55.762Z,49.63
2023-11-19T19:48:26.923Z,49.66
2023-11-19T19:50:58.099Z,49.60
2023-11-19T19:53:29.950Z,49.88
2023-11-19T19:56:01.016Z,49.70
2023-11-19T19:58:33.500Z,49.74
2023-11-19T20:01:05.204Z,49.81
2023-11-19T20:03:37.033Z,49.65
2023-11-19T20:06:12.881Z,49.78
2023-11-19T20:08:44.549Z,49.88
2023-11-19T20:11:15.807Z,49.73
2023-11-19T20:13:46.887Z,49.73
2023-11-19T20:16:18.852Z,49.92
2023-11-19T20:18:50.068Z,49.80
2023-11-19T20:21:21.515Z,49.70
2023-11-19T20:23:52.503Z,49.84
2023-11-19T20:26:23.882Z,49.81
2023-11-19T20:31:29.617Z,49.76
2023-11-19T20:34:02.264Z,49.80
2023-11-19T20:36:33.357Z,49.84
2023-11-19T20:39:04.618Z,49.54
2023-11-19T20:41:35.873Z,49.62
2023-11-19T20:44:09.474Z,49.78
2023-11-19T20:46:40.796Z,49.61
2023-11-19T20:49:12.214Z,49.61
2023-11-19T20:51:43.409Z,49.52
2023-11-19T20:54:15.025Z,49.49
2023-11-19T20:56:46.199Z,49.43
2023-11-19T20:59:20.130Z,49.56
2023-11-19T21:01:51.180Z,49.43
2023-11-19T21:04:22.013Z,49.38
2023-11-19T21:06:55.851Z,49.56
2023-11-19T21:09:27.036Z,49.41
2023-11-19T21:11:58.301Z,49.63
2023-11-19T21:14:29.892Z,49.37
2023-11-19T21:17:01.301Z,49.58
2023-11-19T21:22:08.843Z,49.80
2023-11-19T21:24:39.887Z,49.77
2023-11-19T21:27:12.968Z,49.54
2023-11-19T21:29:44.107Z,49.67
2023-11-19T21:32:15.116Z,49.28
2023-11-19T21:34:46.146Z,49.21
2023-11-19T21:37:17.316Z,49.13
2023-11-19T21:39:48.562Z,49.12
2023-11-19T21:42:19.736Z,48.75
2023-11-19T21:44:50.559Z,48.59
2023-11-19T21:47:21.693Z,48.33
2023-11-19T21:49:55.286Z,48.34
2023-11-19T21:52:26.484Z,48.26
2023-11-19T21:54:57.444Z,47.99
2023-11-19T21:57:28.583Z,48.17
2023-11-19T21:59:59.507Z,48.03
2023-11-19T22:02:30.978Z,47.82
2023-11-19T22:05:02.153Z,47.88
2023-11-19T22:07:33.440Z,47.92
2023-11-19T22:10:05.324Z,47.92
2023-11-19T22:12:36.121Z,47.83
2023-11-19T22:15:08.539Z,47.72
2023-11-19T22:17:39.900Z,47.62
2023-11-19T22:22:46.872Z,47.63
2023-11-19T22:25:18.018Z,47.64
2023-11-19T22:27:49.205Z,47.54
2023-11-19T22:30:20.321Z,47.71
2023-11-19T22:32:52.468Z,47.73
2023-11-19T22:35:23.610Z,47.75
2023-11-19T22:37:54.431Z,47.67
2023-11-19T22:40:25.740Z,47.79
2023-11-19T22:42:56.635Z,47.80
2023-11-19T22:45:27.641Z,47.88
2023-11-19T22:47:58.557Z,48.11
2023-11-19T22:50:29.562Z,48.19
2023-11-19T22:53:01.578Z,48.08
2023-11-19T22:55:32.557Z,48.18
2023-11-19T22:58:04.592Z,48.26
2023-11-19T23:00:37.778Z,48.29
2023-11-19T23:03:08.935Z,48.53
2023-11-19T23:05:40.007Z,48.53
2023-11-19T23:08:12.525Z,48.50
2023-11-19T23:10:43.518Z,48.40
2023-11-19T23:13:14.276Z,48.42
2023-11-19T23:15:45.139Z,48.47
2023-11-19T23:18:15.867Z,48.68
2023-11-19T23:20:47.244Z,48.63
2023-11-19T23:23:18.293Z,48.86
2023-11-19T23:25:50.416Z,48.79
2023-11-19T23:28:21.453Z,48.73
2023-11-19T23:30:52.435Z,48.87
2023-11-19T23:33:24.215Z,49.03
2023-11-19T23:35:55.313Z,48.96
2023-11-19T23:38:26.138Z,49.07
2023-11-19T23:40:56.863Z,49.10
2023-11-19T23:43:27.653Z,49.18
2023-11-19T23:45:58.407Z,49.19
2023-11-19T23:48:30.975Z,49.34
2023-11-19T23:51:01.749Z,49.47
2023-11-19T23:53:32.504Z,49.45
2023-11-19T23:56:03.609Z,49.41
2023-11-19T23:58:34.849Z,49.58
